This is the latest recevied weather packets stored in our database for station/object EFHKFMI. If no packets are shown the sender has not sent any weather packets the latest 10 day(s).
| Time | Temp. | Humidity | Pressure | Rain* | Wind** | Luminosity | Snow |
|---|---|---|---|---|---|---|---|
| 1777826827 | 14.44° C | 51% | 1007.2 hPa | 0 mm | - | - | - |
| 1777825626 | 15° C | 51% | 1007.5 hPa | 0 mm | - | - | - |
| 1777824427 | 15° C | 49% | 1007.4 hPa | 0 mm | - | - | - |
| 1777823226 | 15.56° C | 48% | 1007.4 hPa | 0 mm | - | - | - |
| 1777822026 | 15.56° C | 47% | 1007.3 hPa | 0 mm | - | - | - |
| 1777820826 | 15.56° C | 48% | 1007.4 hPa | 0 mm | - | - | - |
| 1777819626 | 15.56° C | 47% | 1007.4 hPa | 0 mm | - | - | - |
| 1777818426 | 16.11° C | 47% | 1007.4 hPa | 0 mm | - | - | - |
| 1777817226 | 16.11° C | 46% | 1007.4 hPa | 0 mm | - | - | - |
| 1777816026 | 16.11° C | 47% | 1007.4 hPa | 0 mm | - | - | - |
| 1777814826 | 16.67° C | 45% | 1007.3 hPa | 0 mm | - | - | - |
| 1777813626 | 16.67° C | 46% | 1007.4 hPa | 0 mm | - | - | - |
| 1777812426 | 16.67° C | 46% | 1007.5 hPa | 0 mm | - | - | - |
| 1777811226 | 15.56° C | 51% | 1007.6 hPa | 0 mm | - | - | - |
| 1777810026 | 16.11° C | 50% | 1007.6 hPa | 0 mm | - | - | - |
| 1777808826 | 15° C | 54% | 1007.8 hPa | 0 mm | - | - | - |
| 1777807625 | 15° C | 55% | 1007.8 hPa | 0 mm | - | - | - |
| 1777806426 | 14.44° C | 57% | 1007.6 hPa | 0 mm | - | - | - |
| 1777805231 | 15° C | 54% | 1007.4 hPa | 0 mm | - | - | - |
| 1777804026 | 16.11° C | 50% | 1007.3 hPa | 0 mm | - | - | - |
| 1777802825 | 14.44° C | 54% | 1007.4 hPa | 0 mm | - | - | - |
| 1777801626 | 14.44° C | 57% | 1007.5 hPa | 0 mm | - | - | - |
| 1777800425 | 13.33° C | 61% | 1007.7 hPa | 0 mm | - | - | - |
| 1777799225 | 12.78° C | 62% | 1007.6 hPa | 0 mm | - | - | - |
| 1777798025 | 12.78° C | 63% | 1007.6 hPa | 0 mm | - | - | - |
* Rain latest hour (hover to see other rain measurements)
** Current wind speed in m/s (hover to see current wind gust speed)